Time;durP1;ratioP1;P1;durP2;ratioP2;P2;SDS_P1;SDS_P2;PMS_P1;PMS_P2;Temp;Humidity;BMP_temperature;BMP_pressure;BME280_temperature;BME280_humidity;BME280_pressure;Samples;Min_cycle;Max_cycle;Signal;HPM_P1;HPM_P2
2022/02/19 00:01:03;;;;;;;26.80;3.45;;;6.20;99.90;;;;;;5047758;28;20108;-49
2022/02/19 00:03:29;;;;;;;18.63;2.25;;;6.20;99.90;;;;;;5049425;28;20021;-50
2022/02/19 00:05:55;;;;;;;11.85;2.97;;;6.10;99.90;;;;;;5041759;28;20039;-50
2022/02/19 00:08:22;;;;;;;11.30;2.40;;;6.10;99.90;;;;;;5046589;28;20139;-51
2022/02/19 00:10:48;;;;;;;17.08;2.92;;;6.10;99.90;;;;;;5039154;28;20067;-60
2022/02/19 00:13:14;;;;;;;19.73;3.22;;;6.10;99.90;;;;;;5048870;28;20052;-57
2022/02/19 00:15:40;;;;;;;10.40;1.92;;;6.10;99.90;;;;;;5040154;28;20491;-57
2022/02/19 00:18:06;;;;;;;14.23;2.38;;;6.20;99.90;;;;;;5045717;28;20025;-57
2022/02/19 00:20:32;;;;;;;17.52;2.75;;;6.30;99.90;;;;;;5038452;28;20505;-53
2022/02/19 00:22:59;;;;;;;19.52;3.65;;;6.20;99.90;;;;;;5042167;28;20029;-58
2022/02/19 00:25:25;;;;;;;15.70;3.10;;;6.20;99.90;;;;;;5048432;28;20033;-57
2022/02/19 00:27:51;;;;;;;17.45;2.28;;;6.20;99.90;;;;;;5042298;28;20032;-55
2022/02/19 00:30:16;;;;;;;20.92;3.08;;;6.20;99.90;;;;;;5050233;28;20421;-59
2022/02/19 00:32:42;;;;;;;14.52;2.40;;;6.10;99.90;;;;;;5048921;28;20029;-56
2022/02/19 00:35:08;;;;;;;21.80;2.67;;;6.10;99.90;;;;;;5049534;28;20502;-58
2022/02/19 00:37:33;;;;;;;15.23;2.30;;;6.10;99.90;;;;;;5027545;28;20125;-56
2022/02/19 00:39:59;;;;;;;16.92;2.80;;;6.10;99.90;;;;;;5048457;28;20052;-56
2022/02/19 00:42:25;;;;;;;17.15;2.58;;;6.10;99.90;;;;;;5042292;28;20067;-57
2022/02/19 00:44:51;;;;;;;8.00;1.80;;;6.10;99.90;;;;;;5047573;28;20064;-55
2022/02/19 00:47:16;;;;;;;15.52;2.83;;;6.10;99.90;;;;;;5048329;28;20565;-58
2022/02/19 00:49:42;;;;;;;18.30;4.00;;;6.10;99.90;;;;;;5048714;28;20033;-56
2022/02/19 00:52:08;;;;;;;21.05;2.97;;;6.00;99.90;;;;;;5042112;28;20024;-54
2022/02/19 00:54:33;;;;;;;15.25;2.67;;;6.00;99.90;;;;;;5048374;28;20367;-56
2022/02/19 00:56:59;;;;;;;19.85;2.47;;;5.90;99.90;;;;;;5039707;28;20039;-53
2022/02/19 00:59:24;;;;;;;19.08;3.40;;;5.90;99.90;;;;;;5043159;28;20425;-54
2022/02/19 01:01:51;;;;;;;15.73;2.67;;;5.80;99.90;;;;;;5036510;28;20117;-52
2022/02/19 01:04:17;;;;;;;18.98;2.78;;;5.70;99.90;;;;;;5049086;28;20196;-54
2022/02/19 01:06:44;;;;;;;17.90;3.05;;;5.60;99.90;;;;;;5045496;28;20082;-54
2022/02/19 01:09:10;;;;;;;19.15;3.10;;;5.50;99.90;;;;;;5046651;28;20473;-56
2022/02/19 01:11:39;;;;;;;19.25;3.35;;;5.30;99.90;;;;;;5045229;28;20407;-52
2022/02/19 01:14:06;;;;;;;16.52;2.92;;;5.10;99.90;;;;;;5040146;28;20758;-50
2022/02/19 01:16:32;;;;;;;23.40;3.25;;;4.90;99.90;;;;;;5041102;28;20026;-49
2022/02/19 01:18:57;;;;;;;21.50;3.75;;;4.80;99.90;;;;;;5039716;28;20037;-49
2022/02/19 01:21:23;;;;;;;17.50;2.17;;;4.70;99.90;;;;;;5041229;28;20112;-54
2022/02/19 01:23:49;;;;;;;17.42;4.07;;;4.70;99.90;;;;;;5047480;28;20036;-50
2022/02/19 01:26:14;;;;;;;22.60;2.90;;;4.70;99.90;;;;;;5043131;28;20029;-56
2022/02/19 01:28:40;;;;;;;14.32;2.90;;;4.70;99.90;;;;;;5040527;28;20391;-52
2022/02/19 01:31:06;;;;;;;21.88;3.55;;;4.60;99.90;;;;;;5041902;28;20549;-51
2022/02/19 01:33:32;;;;;;;21.60;2.75;;;4.60;99.90;;;;;;5037877;28;20025;-52
2022/02/19 01:35:57;;;;;;;19.13;2.83;;;4.50;99.90;;;;;;5040498;28;20375;-57
2022/02/19 01:38:24;;;;;;;16.13;2.70;;;4.60;99.90;;;;;;5029988;28;20040;-57
2022/02/19 01:40:50;;;;;;;17.20;2.67;;;4.50;99.90;;;;;;5040810;28;20116;-60
2022/02/19 01:43:16;;;;;;;22.33;3.75;;;4.40;99.90;;;;;;5047765;28;20490;-61
2022/02/19 01:45:47;;;;;;;14.48;2.30;;;4.30;99.90;;;;;;5040301;28;20052;-60
2022/02/19 01:48:12;;;;;;;22.80;3.05;;;4.20;99.90;;;;;;5047062;28;20030;-62
2022/02/19 01:50:38;;;;;;;19.42;2.58;;;4.10;99.90;;;;;;5041030;28;20048;-59
2022/02/19 01:53:05;;;;;;;22.60;2.58;;;4.00;99.90;;;;;;5048342;28;20046;-61
2022/02/19 01:55:30;;;;;;;12.57;2.03;;;4.00;99.90;;;;;;5040963;28;20037;-60
2022/02/19 01:57:57;;;;;;;13.73;2.30;;;3.90;99.90;;;;;;5045539;28;20164;-60
2022/02/19 02:00:23;;;;;;;12.90;2.35;;;3.90;99.90;;;;;;5046989;28;20079;-60
2022/02/19 02:02:49;;;;;;;12.82;2.25;;;4.00;99.90;;;;;;5048576;28;20080;-59
2022/02/19 02:05:15;;;;;;;15.50;1.92;;;4.00;99.90;;;;;;5042052;28;20112;-59
2022/02/19 02:07:41;;;;;;;12.70;1.60;;;4.00;99.90;;;;;;5046384;28;20025;-59
2022/02/19 02:10:07;;;;;;;10.25;1.77;;;4.00;99.90;;;;;;5042894;28;20131;-60
2022/02/19 02:12:34;;;;;;;12.30;1.42;;;4.00;99.90;;;;;;5044726;28;20029;-61
2022/02/19 02:14:59;;;;;;;15.88;2.60;;;3.90;99.90;;;;;;5043978;28;20516;-55
2022/02/19 02:17:25;;;;;;;11.80;2.10;;;3.90;99.90;;;;;;5047757;28;20037;-61
2022/02/19 02:19:50;;;;;;;13.23;2.10;;;4.00;99.90;;;;;;5048063;28;20040;-61
2022/02/19 02:22:16;;;;;;;11.00;1.38;;;4.00;99.90;;;;;;5048253;28;20036;-60
2022/02/19 02:24:42;;;;;;;7.72;1.60;;;3.90;99.90;;;;;;5046606;28;20094;-60
2022/02/19 02:27:12;;;;;;;10.65;2.03;;;3.90;99.90;;;;;;5048443;28;20036;-60
2022/02/19 02:29:48;;;;;;;8.50;2.25;;;4.00;99.90;;;;;;5045203;28;20107;-60
2022/02/19 02:32:14;;;;;;;10.80;2.30;;;4.00;99.90;;;;;;5049213;28;20136;-60
2022/02/19 02:34:51;;;;;;;19.15;2.67;;;4.10;99.90;;;;;;5043514;28;20487;-60
2022/02/19 02:37:17;;;;;;;17.25;2.95;;;4.20;99.90;;;;;;5045141;28;20041;-61
2022/02/19 02:39:43;;;;;;;18.80;2.63;;;4.30;99.90;;;;;;5048695;28;20482;-61
2022/02/19 02:42:09;;;;;;;18.73;2.67;;;4.40;99.90;;;;;;5043818;28;20480;-61
2022/02/19 02:44:39;;;;;;;16.38;2.55;;;4.40;99.90;;;;;;5048766;28;20036;-60
2022/02/19 02:47:05;;;;;;;17.05;3.10;;;4.50;99.90;;;;;;5047150;28;20043;-61
2022/02/19 02:49:31;;;;;;;22.95;4.32;;;4.50;99.90;;;;;;5048761;28;20475;-62
2022/02/19 02:51:56;;;;;;;25.90;4.25;;;4.50;99.90;;;;;;5047775;28;20041;-61
2022/02/19 02:54:22;;;;;;;29.63;4.10;;;4.50;99.90;;;;;;5040450;28;20382;-59
2022/02/19 02:56:48;;;;;;;20.80;2.97;;;4.60;99.90;;;;;;5047238;28;20044;-60
2022/02/19 02:59:13;;;;;;;23.05;4.32;;;4.50;99.90;;;;;;5041877;28;20020;-60
2022/02/19 03:01:39;;;;;;;28.67;4.63;;;4.60;99.90;;;;;;5051495;28;20109;-60
2022/02/19 03:04:05;;;;;;;25.75;3.30;;;4.60;99.90;;;;;;5052250;28;20039;-60
2022/02/19 03:06:31;;;;;;;29.67;3.95;;;4.50;99.90;;;;;;5050614;28;20475;-60
2022/02/19 03:08:56;;;;;;;24.77;3.05;;;4.50;99.90;;;;;;5044231;28;20025;-62
2022/02/19 03:11:22;;;;;;;27.45;4.00;;;4.60;99.90;;;;;;5050586;28;20113;-60
2022/02/19 03:13:47;;;;;;;18.13;3.00;;;4.70;99.90;;;;;;5047538;28;20098;-59
2022/02/19 03:16:13;;;;;;;30.92;4.53;;;4.70;99.90;;;;;;5050950;28;20029;-61
2022/02/19 03:18:39;;;;;;;26.40;4.10;;;4.70;99.90;;;;;;5044308;28;20047;-60
2022/02/19 03:21:05;;;;;;;27.75;4.03;;;4.60;99.90;;;;;;5049756;28;20036;-61
2022/02/19 03:23:30;;;;;;;33.22;4.43;;;4.60;99.90;;;;;;5034296;28;20071;-61
2022/02/19 03:25:56;;;;;;;39.00;4.32;;;4.60;99.90;;;;;;5041258;28;20033;-61
2022/02/19 03:28:22;;;;;;;30.00;3.58;;;4.70;99.90;;;;;;5052432;28;20192;-61
2022/02/19 03:30:47;;;;;;;18.38;2.42;;;4.60;99.90;;;;;;5048789;28;20123;-55
2022/02/19 03:33:13;;;;;;;14.93;1.58;;;4.00;99.90;;;;;;5029256;28;20121;-58
2022/02/19 03:35:38;;;;;;;10.98;1.73;;;3.20;99.90;;;;;;5049651;28;20044;-61
2022/02/19 03:38:04;;;;;;;31.25;2.70;;;2.90;99.90;;;;;;5033690;28;20107;-59
2022/02/19 03:40:30;;;;;;;15.00;2.55;;;2.70;99.90;;;;;;5043351;28;20038;-59
2022/02/19 03:42:55;;;;;;;8.43;1.42;;;2.40;99.90;;;;;;5051232;28;20033;-59
2022/02/19 03:45:21;;;;;;;10.27;1.50;;;2.30;99.90;;;;;;5050923;28;20037;-60
2022/02/19 03:47:46;;;;;;;11.55;0.73;;;2.30;99.90;;;;;;5052089;28;20044;-55
2022/02/19 03:50:17;;;;;;;3.42;0.65;;;2.20;99.90;;;;;;5042397;28;20044;-61
2022/02/19 03:52:44;;;;;;;3.85;0.70;;;2.10;99.90;;;;;;5051911;28;20124;-63
2022/02/19 03:55:10;;;;;;;10.20;0.90;;;2.20;99.90;;;;;;5041909;28;20047;-63
2022/02/19 03:57:36;;;;;;;9.57;2.05;;;2.50;99.90;;;;;;5051812;28;20025;-64
2022/02/19 04:00:05;;;;;;;8.55;1.48;;;2.60;99.90;;;;;;5050964;28;20029;-62
2022/02/19 04:02:31;;;;;;;8.80;1.42;;;2.80;99.90;;;;;;5033069;28;20035;-60
2022/02/19 04:04:57;;;;;;;7.63;1.27;;;2.90;99.90;;;;;;5032945;28;20037;-55
2022/02/19 04:07:22;;;;;;;7.32;1.20;;;3.00;99.90;;;;;;5050019;28;20056;-57
2022/02/19 04:09:48;;;;;;;6.03;1.20;;;3.00;99.90;;;;;;5042753;28;20398;-56
2022/02/19 04:12:14;;;;;;;6.03;1.45;;;3.00;99.90;;;;;;5031800;28;20574;-55
2022/02/19 04:14:40;;;;;;;11.00;1.30;;;3.10;99.90;;;;;;5033248;28;20082;-58
2022/02/19 04:17:05;;;;;;;16.83;2.58;;;3.10;99.90;;;;;;5050234;28;20433;-58
2022/02/19 04:19:31;;;;;;;6.53;1.38;;;3.20;99.90;;;;;;5042816;28;20047;-59
2022/02/19 04:21:57;;;;;;;4.47;0.68;;;3.30;99.90;;;;;;5051214;28;20079;-58
2022/02/19 04:24:22;;;;;;;10.45;1.50;;;3.40;99.90;;;;;;5032098;28;20032;-59
2022/02/19 04:26:48;;;;;;;4.20;1.20;;;3.50;99.90;;;;;;5050696;28;20039;-60
2022/02/19 04:29:13;;;;;;;18.75;2.22;;;3.50;99.90;;;;;;5050446;28;20029;-57
2022/02/19 04:31:40;;;;;;;15.85;1.70;;;3.50;99.90;;;;;;5033375;28;20033;-62
2022/02/19 04:34:05;;;;;;;13.38;2.10;;;3.40;99.90;;;;;;5049132;28;20116;-62
2022/02/19 04:36:32;;;;;;;16.95;2.35;;;3.30;99.90;;;;;;5050438;28;20048;-60
2022/02/19 04:38:58;;;;;;;12.10;1.95;;;3.20;99.90;;;;;;5032896;28;20545;-58
2022/02/19 04:41:23;;;;;;;12.40;1.48;;;3.20;99.90;;;;;;5051152;28;20363;-59
2022/02/19 04:43:49;;;;;;;12.00;1.98;;;3.20;99.90;;;;;;5047957;28;20037;-62
2022/02/19 04:46:15;;;;;;;9.23;1.65;;;3.20;99.90;;;;;;5032426;28;20120;-61
2022/02/19 04:48:40;;;;;;;11.02;2.20;;;3.30;99.90;;;;;;5049395;28;20083;-62
2022/02/19 04:51:06;;;;;;;7.63;1.05;;;3.30;99.90;;;;;;5042356;28;20159;-57
2022/02/19 04:53:32;;;;;;;6.28;1.20;;;3.30;99.90;;;;;;5042511;28;20036;-59
2022/02/19 04:55:58;;;;;;;11.70;1.63;;;3.30;99.90;;;;;;5049098;28;20025;-58
2022/02/19 04:58:23;;;;;;;9.73;1.77;;;3.30;99.90;;;;;;5050582;28;20538;-61
2022/02/19 05:00:49;;;;;;;7.28;1.70;;;3.30;99.90;;;;;;5041228;28;20048;-60
2022/02/19 05:03:15;;;;;;;12.65;1.58;;;3.30;99.90;;;;;;5050554;28;20032;-60
2022/02/19 05:05:41;;;;;;;17.88;2.35;;;3.20;99.90;;;;;;5040904;28;20155;-60
2022/02/19 05:08:06;;;;;;;13.27;1.60;;;3.20;99.90;;;;;;5050442;28;20043;-61
2022/02/19 05:10:32;;;;;;;7.80;1.45;;;3.30;99.90;;;;;;5028504;28;20112;-57
2022/02/19 05:12:58;;;;;;;16.45;2.13;;;3.40;99.90;;;;;;5050136;28;20039;-56
2022/02/19 05:15:23;;;;;;;14.07;2.00;;;3.40;99.90;;;;;;5042685;28;20412;-60
2022/02/19 05:17:51;;;;;;;10.68;1.90;;;3.50;99.90;;;;;;5048391;28;20112;-60
2022/02/19 05:20:21;;;;;;;15.82;2.25;;;3.50;99.90;;;;;;5050902;28;20033;-55
2022/02/19 05:22:47;;;;;;;18.75;2.70;;;3.60;99.90;;;;;;5052824;28;20032;-56
2022/02/19 05:25:13;;;;;;;12.80;2.33;;;3.60;99.90;;;;;;5043670;28;20247;-54
2022/02/19 05:27:38;;;;;;;19.70;2.47;;;3.60;99.90;;;;;;5053727;28;20064;-56
2022/02/19 05:30:04;;;;;;;15.27;2.28;;;3.60;99.90;;;;;;5041577;28;20064;-58
2022/02/19 05:32:30;;;;;;;22.92;2.58;;;3.60;99.90;;;;;;5050197;28;20029;-61
2022/02/19 05:34:56;;;;;;;17.00;2.80;;;3.70;99.90;;;;;;5037810;28;20075;-60
2022/02/19 05:37:22;;;;;;;16.10;2.60;;;3.70;99.90;;;;;;5044690;28;20028;-59
2022/02/19 05:39:47;;;;;;;13.90;2.15;;;3.70;99.90;;;;;;5048830;28;20675;-58
2022/02/19 05:42:13;;;;;;;14.05;1.80;;;3.70;99.90;;;;;;5050023;28;20112;-62
2022/02/19 05:44:38;;;;;;;12.13;1.77;;;3.70;99.90;;;;;;5048686;28;20056;-64
2022/02/19 05:47:04;;;;;;;19.98;2.13;;;3.70;99.90;;;;;;5048963;28;20331;-61
2022/02/19 05:49:30;;;;;;;9.52;1.50;;;3.70;99.90;;;;;;5030926;28;20398;-60
2022/02/19 05:51:56;;;;;;;14.20;2.03;;;3.70;99.90;;;;;;5049443;28;20090;-63
2022/02/19 05:54:23;;;;;;;11.63;1.48;;;3.60;99.90;;;;;;5040343;28;20025;-58
2022/02/19 05:56:48;;;;;;;13.70;1.80;;;3.50;99.90;;;;;;5030936;28;20075;-62
2022/02/19 05:59:14;;;;;;;11.40;1.48;;;3.50;99.90;;;;;;5036642;28;20026;-59
2022/02/19 06:01:40;;;;;;;17.05;1.85;;;3.40;99.90;;;;;;5045705;28;20071;-62
2022/02/19 06:04:05;;;;;;;7.32;1.40;;;3.40;99.90;;;;;;5041509;28;20037;-60
2022/02/19 06:06:31;;;;;;;9.77;1.17;;;3.30;99.90;;;;;;5048046;28;20032;-59
2022/02/19 06:08:57;;;;;;;14.75;1.60;;;3.30;99.90;;;;;;5041301;28;20490;-58
2022/02/19 06:11:22;;;;;;;8.13;1.38;;;3.30;99.90;;;;;;5048242;28;20124;-58
2022/02/19 06:13:48;;;;;;;9.13;1.25;;;3.20;99.90;;;;;;5038420;28;20025;-58
2022/02/19 06:16:13;;;;;;;7.72;1.08;;;3.30;99.90;;;;;;5042374;28;20383;-56
2022/02/19 06:18:39;;;;;;;7.00;1.20;;;3.30;99.90;;;;;;5048518;28;20021;-59
2022/02/19 06:21:05;;;;;;;6.43;0.85;;;3.20;99.90;;;;;;5041026;28;20910;-59
2022/02/19 06:23:31;;;;;;;7.32;1.23;;;3.20;99.90;;;;;;5048927;28;20502;-58
2022/02/19 06:25:56;;;;;;;3.25;0.85;;;3.20;99.90;;;;;;5039498;28;20040;-57
2022/02/19 06:28:22;;;;;;;4.93;0.63;;;3.20;99.90;;;;;;5048808;28;20107;-59
2022/02/19 06:30:47;;;;;;;2.25;0.50;;;3.10;99.90;;;;;;5039877;28;20124;-60
2022/02/19 06:33:13;;;;;;;2.80;0.52;;;3.10;99.90;;;;;;5049223;28;20079;-57
2022/02/19 06:35:39;;;;;;;5.07;0.50;;;3.10;99.90;;;;;;5043638;28;20040;-58
2022/02/19 06:38:04;;;;;;;2.65;1.20;;;3.10;99.90;;;;;;5053318;28;20040;-59
2022/02/19 06:40:30;;;;;;;3.63;0.90;;;2.90;99.90;;;;;;5052194;28;20029;-60
2022/02/19 06:42:56;;;;;;;3.40;0.73;;;2.80;99.90;;;;;;5053209;28;20146;-60
2022/02/19 06:45:21;;;;;;;5.53;1.00;;;2.60;99.90;;;;;;5045374;28;20037;-59
2022/02/19 06:47:47;;;;;;;7.00;1.10;;;2.50;99.90;;;;;;5035150;28;20068;-60
2022/02/19 06:50:12;;;;;;;9.63;1.02;;;2.40;99.90;;;;;;5047043;28;20373;-60
2022/02/19 06:52:38;;;;;;;9.50;1.25;;;2.40;99.90;;;;;;5049639;28;20033;-59
2022/02/19 06:55:05;;;;;;;6.18;1.20;;;2.30;99.90;;;;;;5048190;28;20356;-61
2022/02/19 06:57:30;;;;;;;10.82;1.65;;;2.40;99.90;;;;;;5048492;28;20368;-58
2022/02/19 06:59:56;;;;;;;10.95;1.98;;;2.40;99.90;;;;;;5049138;28;20337;-57
2022/02/19 07:02:21;;;;;;;8.73;1.33;;;2.40;99.90;;;;;;5046963;28;20021;-58
2022/02/19 07:04:47;;;;;;;9.57;1.05;;;2.40;99.90;;;;;;5051032;28;20112;-56
2022/02/19 07:07:13;;;;;;;6.85;1.27;;;2.50;99.90;;;;;;5041995;28;20037;-56
2022/02/19 07:09:39;;;;;;;5.65;0.90;;;2.40;99.90;;;;;;5033634;28;20387;-53
2022/02/19 07:12:05;;;;;;;9.40;1.25;;;2.30;99.90;;;;;;5044773;28;20025;-55
2022/02/19 07:14:31;;;;;;;7.15;1.95;;;2.30;99.90;;;;;;5051664;28;20028;-56
2022/02/19 07:17:04;;;;;;;7.90;1.27;;;2.30;99.90;;;;;;5051552;28;20041;-52
2022/02/19 07:19:33;;;;;;;10.18;1.58;;;2.20;99.90;;;;;;5052481;28;20032;-55
2022/02/19 07:22:00;;;;;;;6.05;0.70;;;2.20;99.90;;;;;;5043343;28;20040;-56
2022/02/19 07:24:25;;;;;;;7.68;1.30;;;2.20;99.90;;;;;;5052397;28;20044;-52
2022/02/19 07:26:51;;;;;;;8.52;1.35;;;2.20;99.90;;;;;;5042707;28;20037;-54
2022/02/19 07:29:16;;;;;;;10.07;1.45;;;2.30;99.90;;;;;;5052720;28;20033;-58
2022/02/19 07:31:42;;;;;;;8.45;1.27;;;2.40;99.90;;;;;;5051266;28;20561;-59
2022/02/19 07:34:08;;;;;;;9.95;1.42;;;2.50;99.90;;;;;;5052066;28;20048;-56
2022/02/19 07:36:34;;;;;;;10.68;1.70;;;2.50;99.90;;;;;;5042430;28;20039;-57
2022/02/19 07:38:59;;;;;;;13.02;2.47;;;2.60;99.90;;;;;;5034418;28;20120;-57
2022/02/19 07:41:25;;;;;;;23.90;2.78;;;2.70;99.90;;;;;;5044593;28;20440;-60
2022/02/19 07:43:51;;;;;;;14.90;2.25;;;2.90;99.90;;;;;;5050654;28;20044;-60
2022/02/19 07:46:16;;;;;;;10.90;2.08;;;3.00;99.90;;;;;;5043950;28;20034;-60
2022/02/19 07:48:42;;;;;;;16.52;1.77;;;3.10;99.90;;;;;;5050117;28;20052;-59
2022/02/19 07:59:20;;;;;;;10.20;1.25;;;3.50;99.90;;;;;;5046574;28;20152;-62
2022/02/19 08:01:45;;;;;;;10.32;1.38;;;3.60;99.90;;;;;;5042085;28;20116;-60
2022/02/19 08:04:11;;;;;;;13.93;1.60;;;3.70;99.90;;;;;;5044583;28;20037;-62
2022/02/19 08:06:37;;;;;;;15.00;2.03;;;3.70;99.90;;;;;;5050068;28;20040;-57
2022/02/19 08:09:02;;;;;;;5.82;1.38;;;3.80;99.90;;;;;;5046974;28;20083;-60
2022/02/19 08:11:28;;;;;;;8.98;1.75;;;3.90;99.90;;;;;;5039200;28;20049;-60
2022/02/19 08:13:54;;;;;;;5.63;1.20;;;3.90;99.90;;;;;;5046989;28;20395;-61
2022/02/19 08:16:20;;;;;;;8.50;1.13;;;4.00;99.90;;;;;;5045499;28;20398;-59
2022/02/19 08:18:50;;;;;;;6.57;1.35;;;4.10;99.90;;;;;;5050378;28;20104;-62
2022/02/19 08:21:18;;;;;;;6.63;1.08;;;4.20;99.90;;;;;;5045355;28;20434;-60
2022/02/19 08:23:43;;;;;;;8.73;1.10;;;4.20;99.90;;;;;;5048093;28;20083;-59
2022/02/19 08:26:09;;;;;;;10.13;1.52;;;4.30;99.90;;;;;;5042291;28;20487;-60
2022/02/19 08:28:35;;;;;;;9.52;1.40;;;4.30;99.90;;;;;;5051395;28;20053;-59
2022/02/19 08:31:00;;;;;;;9.52;1.38;;;4.30;99.90;;;;;;5043850;28;20099;-56
2022/02/19 08:33:26;;;;;;;3.75;0.80;;;4.30;99.90;;;;;;5045984;28;20029;-60
2022/02/19 08:35:52;;;;;;;9.48;1.25;;;4.30;99.90;;;;;;5047761;28;20044;-63
2022/02/19 08:38:18;;;;;;;5.38;1.00;;;4.30;99.90;;;;;;5045489;28;20025;-62
2022/02/19 08:40:44;;;;;;;11.05;1.17;;;4.30;99.90;;;;;;5041407;28;20029;-60
2022/02/19 08:43:12;;;;;;;7.43;1.10;;;4.30;99.90;;;;;;5043375;28;20438;-57
2022/02/19 08:45:41;;;;;;;5.25;1.27;;;4.30;99.90;;;;;;5041620;28;20057;-56
2022/02/19 08:48:08;;;;;;;7.45;1.20;;;4.30;99.90;;;;;;5032790;28;20383;-62
2022/02/19 08:50:39;;;;;;;11.55;1.65;;;4.30;99.90;;;;;;5028478;28;20025;-60
2022/02/19 08:53:04;;;;;;;3.53;1.13;;;4.40;99.90;;;;;;5042672;28;20075;-60
2022/02/19 08:55:30;;;;;;;5.43;0.98;;;4.40;99.90;;;;;;5041626;28;20033;-60
2022/02/19 08:57:57;;;;;;;4.95;0.88;;;4.40;99.90;;;;;;5041813;28;20218;-61
2022/02/19 09:00:23;;;;;;;3.80;1.15;;;4.50;99.90;;;;;;5049738;28;20033;-60
2022/02/19 09:02:48;;;;;;;4.00;0.75;;;4.40;99.90;;;;;;5048437;28;20037;-63
2022/02/19 09:05:16;;;;;;;7.50;0.60;;;4.40;99.90;;;;;;5044557;28;20029;-60
2022/02/19 09:07:42;;;;;;;1.80;0.60;;;4.20;99.90;;;;;;5047426;28;20044;-60
2022/02/19 09:10:09;;;;;;;2.92;0.60;;;4.10;99.90;;;;;;5045340;28;20033;-61
2022/02/19 09:12:36;;;;;;;2.22;0.70;;;4.00;99.90;;;;;;5046542;28;20083;-61
2022/02/19 09:15:03;;;;;;;1.73;0.63;;;3.90;99.90;;;;;;5045022;28;20565;-62
2022/02/19 09:17:29;;;;;;;1.77;1.10;;;3.80;99.90;;;;;;5044250;28;20478;-60
2022/02/19 09:19:54;;;;;;;3.45;0.93;;;3.80;99.90;;;;;;5050568;28;20039;-60
2022/02/19 09:22:20;;;;;;;0.70;0.40;;;3.80;99.90;;;;;;5049879;28;20021;-61
2022/02/19 09:24:46;;;;;;;2.17;0.50;;;3.70;99.90;;;;;;5046188;28;20060;-58
2022/02/19 09:27:11;;;;;;;2.55;0.55;;;3.70;99.90;;;;;;5048716;28;20024;-57
2022/02/19 09:29:37;;;;;;;2.40;0.50;;;3.60;99.90;;;;;;5044285;28;20116;-58
2022/02/19 09:32:03;;;;;;;1.35;0.63;;;3.50;99.90;;;;;;5049737;28;20098;-58
2022/02/19 09:34:29;;;;;;;1.83;0.57;;;3.40;99.90;;;;;;5040380;28;20553;-59
2022/02/19 09:36:55;;;;;;;2.17;0.80;;;3.20;99.90;;;;;;5048966;28;20388;-60
2022/02/19 09:39:21;;;;;;;5.63;1.00;;;3.10;99.90;;;;;;5049581;28;20031;-57
2022/02/19 09:41:48;;;;;;;3.85;0.80;;;2.90;99.90;;;;;;5050350;28;20463;-58
2022/02/19 09:44:14;;;;;;;8.80;1.20;;;2.90;99.90;;;;;;5043714;28;20087;-61
2022/02/19 09:46:40;;;;;;;3.65;1.10;;;2.80;99.90;;;;;;5046315;28;20121;-56
2022/02/19 09:49:08;;;;;;;9.52;1.52;;;2.80;99.90;;;;;;5044309;28;20414;-56
2022/02/19 09:51:35;;;;;;;10.55;2.13;;;2.90;99.90;;;;;;5047837;28;20059;-57
2022/02/19 09:54:01;;;;;;;9.77;1.35;;;3.00;99.90;;;;;;5045484;28;20455;-53
2022/02/19 09:56:28;;;;;;;7.68;1.80;;;3.10;99.90;;;;;;5043820;28;20112;-58
2022/02/19 09:59:00;;;;;;;7.82;1.73;;;3.10;99.90;;;;;;5028047;28;20036;-58
2022/02/19 10:01:27;;;;;;;8.95;1.83;;;3.30;99.90;;;;;;5040309;28;20021;-58
2022/02/19 10:04:03;;;;;;;14.15;2.17;;;3.30;99.90;;;;;;5049056;28;20029;-57
2022/02/19 10:06:32;;;;;;;15.38;2.33;;;3.40;99.90;;;;;;5046598;28;20104;-58
2022/02/19 10:09:28;;;;;;;11.60;2.10;;;3.40;99.90;;;;;;5048192;28;20029;-57
2022/02/19 10:12:06;;;;;;;11.05;2.55;;;3.30;99.90;;;;;;5036958;28;20462;-55
2022/02/19 10:14:34;;;;;;;13.50;2.22;;;3.30;99.90;;;;;;5045015;28;20029;-55
2022/02/19 10:17:18;;;;;;;15.63;3.63;;;3.30;99.90;;;;;;5044269;28;20034;-60
2022/02/19 10:20:14;;;;;;;10.77;2.22;;;3.10;99.90;;;;;;5046258;28;20025;-60
2022/02/19 10:22:42;;;;;;;14.68;2.38;;;3.00;99.90;;;;;;5042379;28;20025;-59
2022/02/19 10:25:09;;;;;;;10.43;2.10;;;3.00;99.90;;;;;;5048188;28;20057;-62
2022/02/19 10:27:54;;;;;;;10.23;2.70;;;3.10;99.90;;;;;;5038496;28;20024;-59
2022/02/19 10:30:22;;;;;;;12.38;3.08;;;3.20;99.90;;;;;;5041479;28;20013;-62
2022/02/19 10:32:57;;;;;;;11.60;2.58;;;3.30;99.90;;;;;;5040900;28;20021;-54
2022/02/19 10:35:33;;;;;;;11.48;2.78;;;3.40;99.90;;;;;;5037297;28;20030;-58
2022/02/19 10:38:04;;;;;;;16.25;2.97;;;3.40;99.90;;;;;;5046658;28;20386;-55
2022/02/19 10:40:36;;;;;;;18.25;2.70;;;3.60;99.90;;;;;;5048160;28;20171;-56
2022/02/19 10:43:05;;;;;;;17.98;3.25;;;3.70;99.90;;;;;;5039411;28;20079;-56
2022/02/19 10:45:33;;;;;;;18.35;3.00;;;3.80;99.90;;;;;;5041652;28;20380;-56
2022/02/19 10:48:17;;;;;;;16.85;3.38;;;4.00;99.90;;;;;;5041076;28;20029;-59
2022/02/19 10:50:45;;;;;;;22.33;3.05;;;4.20;99.90;;;;;;5044491;28;20055;-59
2022/02/19 10:53:24;;;;;;;18.42;3.30;;;4.40;99.90;;;;;;5029094;28;20514;-58
2022/02/19 10:55:50;;;;;;;18.70;3.08;;;4.50;99.90;;;;;;5040072;28;20034;-58
2022/02/19 10:58:17;;;;;;;17.67;3.60;;;4.60;99.90;;;;;;5029481;28;20623;-57
2022/02/19 11:00:44;;;;;;;19.88;3.10;;;4.70;99.90;;;;;;5040332;28;20109;-59
2022/02/19 11:03:10;;;;;;;13.93;3.10;;;4.80;99.90;;;;;;5046778;28;20037;-59
2022/02/19 11:05:36;;;;;;;15.45;2.50;;;4.90;99.90;;;;;;5047584;28;20036;-59
2022/02/19 11:08:02;;;;;;;15.27;2.20;;;4.90;99.90;;;;;;5047107;28;20041;-58
2022/02/19 11:10:29;;;;;;;13.02;2.05;;;5.00;99.90;;;;;;5040370;28;20192;-57
2022/02/19 11:12:55;;;;;;;13.77;3.40;;;5.10;99.90;;;;;;5046925;28;20033;-58
2022/02/19 11:15:25;;;;;;;11.68;2.67;;;5.20;99.90;;;;;;5042490;28;20482;-61
2022/02/19 11:17:51;;;;;;;9.50;1.90;;;5.30;99.90;;;;;;5047419;28;20394;-59
2022/02/19 11:20:18;;;;;;;8.88;1.80;;;5.30;99.90;;;;;;5043407;28;20141;-61
2022/02/19 11:22:44;;;;;;;9.43;2.00;;;5.30;99.90;;;;;;5049021;28;20033;-59
2022/02/19 11:25:14;;;;;;;12.45;2.17;;;5.30;99.90;;;;;;5051433;28;20067;-59
2022/02/19 11:27:46;;;;;;;11.50;2.20;;;5.20;99.90;;;;;;5050355;28;20462;-60
2022/02/19 11:30:12;;;;;;;13.05;3.08;;;5.20;99.90;;;;;;5052278;28;20026;-58
2022/02/19 11:32:41;;;;;;;7.30;1.50;;;5.30;99.90;;;;;;5030005;28;20045;-48
2022/02/19 11:35:08;;;;;;;11.75;1.80;;;5.40;99.90;;;;;;5052691;28;20037;-51
2022/02/19 11:37:39;;;;;;;11.57;2.22;;;5.50;99.90;;;;;;5043408;28;20045;-53
2022/02/19 11:40:11;;;;;;;13.73;2.58;;;5.60;99.90;;;;;;5051233;28;20505;-52
2022/02/19 11:42:43;;;;;;;9.00;2.03;;;5.70;99.90;;;;;;5042421;28;20037;-54
2022/02/19 11:45:23;;;;;;;7.10;1.92;;;5.60;99.90;;;;;;5050653;28;20056;-53
2022/02/19 11:47:55;;;;;;;11.65;1.92;;;5.80;99.90;;;;;;5031601;28;20076;-49
2022/02/19 11:50:26;;;;;;;9.45;2.00;;;5.70;99.90;;;;;;5026462;28;20025;-58
2022/02/19 11:53:10;;;;;;;8.10;2.20;;;5.60;99.90;;;;;;5052084;28;20040;-51
2022/02/19 11:55:46;;;;;;;12.73;2.33;;;5.50;99.90;;;;;;5046507;28;20025;-65
2022/02/19 11:58:14;;;;;;;16.27;2.53;;;5.40;99.90;;;;;;5052353;28;20526;-59
2022/02/19 12:00:47;;;;;;;12.63;2.55;;;5.20;99.90;;;;;;5048611;28;20579;-57
2022/02/19 12:03:23;;;;;;;19.63;3.75;;;5.10;99.90;;;;;;5049092;28;20033;-60
2022/02/19 12:06:25;;;;;;;13.55;2.90;;;5.00;99.90;;;;;;5046628;28;20025;-57
2022/02/19 12:08:53;;;;;;;17.70;3.47;;;4.90;99.90;;;;;;5039147;28;20120;-57
2022/02/19 12:11:21;;;;;;;13.00;2.85;;;4.90;99.90;;;;;;5034740;28;20021;-54
2022/02/19 12:13:52;;;;;;;19.35;3.13;;;4.80;99.90;;;;;;5041738;28;20045;-53
2022/02/19 12:16:27;;;;;;;21.63;3.83;;;4.70;99.90;;;;;;5051301;28;20124;-60
2022/02/19 12:18:54;;;;;;;24.50;4.25;;;4.60;99.90;;;;;;5042657;28;20037;-54
2022/02/19 12:21:41;;;;;;;25.02;4.78;;;4.60;99.90;;;;;;5052856;28;20074;-58
2022/02/19 12:24:24;;;;;;;17.80;3.80;;;4.60;99.90;;;;;;5048249;28;20079;-57
2022/02/19 12:26:56;;;;;;;31.60;5.60;;;4.60;99.90;;;;;;5050154;28;20024;-56
2022/02/19 12:29:22;;;;;;;25.13;4.65;;;4.70;99.90;;;;;;5051158;28;20025;-59
2022/02/19 12:32:11;;;;;;;13.30;3.08;;;4.70;99.90;;;;;;5051361;28;20040;-59
2022/02/19 12:34:39;;;;;;;14.32;3.20;;;4.60;99.90;;;;;;5051970;28;20124;-57
2022/02/19 12:37:09;;;;;;;28.45;3.88;;;4.60;99.90;;;;;;5050793;28;20029;-55
2022/02/19 12:39:41;;;;;;;15.82;4.05;;;4.50;99.90;;;;;;5047349;28;20382;-57
2022/02/19 12:42:07;;;;;;;18.10;3.67;;;4.60;99.90;;;;;;5031064;28;20099;-58
2022/02/19 12:44:34;;;;;;;14.48;2.85;;;5.60;99.90;;;;;;5031045;28;20045;-57
2022/02/19 12:46:59;;;;;;;17.27;3.88;;;6.80;99.90;;;;;;5030071;28;20507;-58
2022/02/19 12:49:25;;;;;;;13.75;3.30;;;7.70;99.90;;;;;;5031006;28;20040;-56
2022/02/19 12:51:58;;;;;;;20.65;4.25;;;8.40;99.90;;;;;;5030561;28;20040;-56
2022/02/19 12:54:44;;;;;;;17.08;4.30;;;7.70;99.90;;;;;;5030800;28;20060;-58
2022/02/19 12:57:12;;;;;;;20.85;3.35;;;6.90;99.90;;;;;;5030679;28;20104;-56
2022/02/19 12:59:41;;;;;;;22.02;4.22;;;6.20;99.90;;;;;;5030779;28;20376;-58